Time;durP1;ratioP1;P1;durP2;ratioP2;P2;SDS_P1;SDS_P2;PMS_P1;PMS_P2;Temp;Humidity;BMP_temperature;BMP_pressure;BME280_temperature;BME280_humidity;BME280_pressure;Samples;Min_cycle;Max_cycle;Signal;HPM_P1;HPM_P2
2023/05/11 00:02:00;;;;;;;0.60;0.50;;;13.60;99.90;;;13.68;100.00;100824.38;5202516;28;20405;-68
2023/05/11 00:04:33;;;;;;;0.52;0.47;;;13.60;99.90;;;13.70;100.00;100820.09;5206664;28;20050;-68
2023/05/11 00:07:20;;;;;;;0.65;0.50;;;13.60;99.90;;;13.72;100.00;100818.38;5213469;28;20052;-67
2023/05/11 00:09:52;;;;;;;0.43;0.43;;;13.60;99.90;;;13.72;100.00;100823.63;5208944;28;20037;-68
2023/05/11 00:12:24;;;;;;;0.68;0.68;;;13.60;99.90;;;13.73;100.00;100821.88;5207643;28;20044;-67
2023/05/11 00:14:57;;;;;;;0.40;0.32;;;13.60;99.90;;;13.72;100.00;100822.72;5210322;28;20045;-67
2023/05/11 00:17:30;;;;;;;0.40;0.40;;;13.60;99.90;;;13.71;100.00;100821.84;5203572;28;20532;-69
2023/05/11 00:20:04;;;;;;;0.40;0.40;;;13.60;99.90;;;13.72;100.00;100809.63;5203564;28;20047;-67
2023/05/11 00:22:36;;;;;;;0.40;0.40;;;13.60;99.90;;;13.72;100.00;100820.13;5203104;28;20037;-67
2023/05/11 00:25:09;;;;;;;0.47;0.47;;;13.60;99.90;;;13.73;100.00;100814.91;5203850;28;20055;-67
2023/05/11 00:27:44;;;;;;;0.82;0.50;;;13.60;99.90;;;13.73;100.00;100816.63;5207183;28;20041;-67
2023/05/11 00:30:17;;;;;;;0.50;0.50;;;13.60;99.90;;;13.70;100.00;100819.19;5205401;28;20048;-67
2023/05/11 00:32:51;;;;;;;0.40;0.40;;;13.60;99.90;;;13.69;100.00;100818.31;5206971;28;20063;-67
2023/05/11 00:35:25;;;;;;;0.25;0.25;;;13.60;99.90;;;13.67;100.00;100814.75;5206566;28;20344;-69
2023/05/11 00:37:57;;;;;;;0.52;0.50;;;13.60;99.90;;;13.67;100.00;100813.88;5203712;28;20048;-68
2023/05/11 00:40:31;;;;;;;0.60;0.57;;;13.50;99.90;;;13.67;100.00;100813.88;5201806;28;20505;-67
2023/05/11 00:43:04;;;;;;;0.77;0.32;;;13.50;99.90;;;13.67;100.00;100814.75;5202937;28;20418;-67
2023/05/11 00:45:38;;;;;;;0.77;0.57;;;13.50;99.90;;;13.68;100.00;100815.63;5202078;28;20049;-68
2023/05/11 00:48:10;;;;;;;0.90;0.57;;;13.50;99.90;;;13.68;100.00;100808.66;5203139;28;20057;-67
2023/05/11 00:50:45;;;;;;;0.50;0.47;;;13.50;99.90;;;13.66;100.00;100807.75;5210011;28;20045;-67
2023/05/11 00:53:17;;;;;;;0.70;0.60;;;13.50;99.90;;;13.60;100.00;100807.63;5185356;28;20059;-68
2023/05/11 00:55:49;;;;;;;1.27;0.70;;;13.50;99.90;;;13.55;100.00;100806.63;5199336;28;20095;-67
2023/05/11 00:58:21;;;;;;;0.63;0.55;;;13.40;99.90;;;13.53;100.00;100811.84;5196637;28;20045;-67
2023/05/11 01:00:53;;;;;;;1.33;0.70;;;13.40;99.90;;;13.52;100.00;100814.41;5201599;28;20498;-67
2023/05/11 01:03:25;;;;;;;2.33;1.67;;;13.40;99.90;;;13.54;100.00;100810.09;5202833;28;20049;-67
2023/05/11 01:06:09;;;;;;;0.60;0.55;;;13.40;99.90;;;13.54;100.00;100808.34;5199902;28;20054;-68
2023/05/11 01:08:46;;;;;;;0.52;0.50;;;13.40;99.90;;;13.54;100.00;100818.84;5210426;28;20064;-68
2023/05/11 01:11:28;;;;;;;0.70;0.60;;;13.40;99.90;;;13.53;100.00;100819.69;5205773;28;20422;-69
2023/05/11 01:14:13;;;;;;;0.55;0.52;;;13.40;99.90;;;13.52;100.00;100819.66;5203761;28;20055;-69
2023/05/11 01:16:50;;;;;;;1.33;0.80;;;13.40;99.90;;;13.51;100.00;100817.91;5207012;28;20033;-69
2023/05/11 01:19:41;;;;;;;2.08;0.80;;;13.40;99.90;;;13.46;100.00;100827.38;5189502;28;20080;-67
2023/05/11 01:22:38;;;;;;;0.68;0.52;;;13.40;99.90;;;13.43;100.00;100824.66;5205214;28;20117;-67
2023/05/11 01:25:28;;;;;;;0.80;0.80;;;13.40;99.90;;;13.41;100.00;100836.84;5205550;28;20510;-69
2023/05/11 01:28:23;;;;;;;1.02;0.80;;;13.40;99.90;;;13.41;100.00;100839.47;5205928;28;20053;-68
2023/05/11 01:31:00;;;;;;;0.60;0.60;;;13.40;99.90;;;13.44;100.00;100837.81;5202914;28;20041;-68
2023/05/11 01:33:35;;;;;;;0.80;0.80;;;13.40;99.90;;;13.41;100.00;100831.59;5207658;28;20558;-67
2023/05/11 01:36:11;;;;;;;0.60;0.60;;;13.30;99.90;;;13.37;100.00;100829.78;5196804;28;20557;-67
2023/05/11 01:38:47;;;;;;;0.68;0.63;;;13.30;99.90;;;13.30;100.00;100832.25;5197456;28;20046;-68
2023/05/11 01:41:23;;;;;;;1.10;0.80;;;13.30;99.90;;;13.28;100.00;100828.69;5197163;28;20053;-67
2023/05/11 01:44:00;;;;;;;1.20;1.02;;;13.30;99.90;;;13.28;100.00;100827.81;5220527;28;20041;-68
2023/05/11 01:46:34;;;;;;;1.17;0.80;;;13.30;99.90;;;13.30;100.00;100823.47;5221352;28;20064;-68
2023/05/11 01:49:07;;;;;;;1.40;0.70;;;13.30;99.90;;;13.33;100.00;100827.94;5221488;28;20124;-68
2023/05/11 01:51:42;;;;;;;0.90;0.73;;;13.30;99.90;;;13.33;100.00;100827.94;5215358;28;20041;-68
2023/05/11 01:54:14;;;;;;;1.08;0.90;;;13.20;99.90;;;13.35;100.00;100831.47;5204931;28;20059;-68
2023/05/11 01:56:49;;;;;;;1.15;0.95;;;13.20;99.90;;;13.36;100.00;100833.22;5196713;28;20042;-67
2023/05/11 01:59:21;;;;;;;0.80;0.80;;;13.30;99.90;;;13.39;100.00;100830.69;5204978;28;20072;-67
2023/05/11 02:01:57;;;;;;;1.02;0.93;;;13.30;99.90;;;13.40;100.00;100835.06;5201225;28;20047;-68
2023/05/11 02:04:32;;;;;;;0.88;0.63;;;13.30;99.90;;;13.40;100.00;100830.72;5199116;28;20050;-68
2023/05/11 02:07:07;;;;;;;1.40;0.88;;;13.30;99.90;;;13.40;100.00;100838.56;5212624;28;20145;-68
2023/05/11 02:09:40;;;;;;;1.52;0.73;;;13.30;99.90;;;13.38;100.00;100834.16;5205620;28;20132;-68
2023/05/11 02:12:16;;;;;;;0.80;0.80;;;13.30;99.90;;;13.39;100.00;100841.16;5213133;28;20045;-68
2023/05/11 02:14:50;;;;;;;1.02;0.93;;;13.30;99.90;;;13.40;100.00;100829.84;5196421;28;20045;-68
2023/05/11 02:17:25;;;;;;;2.30;0.90;;;13.30;99.90;;;13.40;100.00;100840.31;5204728;28;20049;-68
2023/05/11 02:19:58;;;;;;;1.17;0.80;;;13.30;99.90;;;13.40;100.00;100835.06;5212490;28;20072;-67
2023/05/11 02:22:32;;;;;;;1.25;0.93;;;13.30;99.90;;;13.38;100.00;100836.78;5205682;28;20048;-68
2023/05/11 02:25:06;;;;;;;1.98;0.73;;;13.20;99.90;;;13.39;100.00;100836.81;5205855;28;20084;-68
2023/05/11 02:27:38;;;;;;;1.55;0.90;;;13.20;99.90;;;13.42;100.00;100843.84;5205298;28;20048;-67
2023/05/11 02:30:12;;;;;;;1.38;1.00;;;13.30;99.90;;;13.41;100.00;100842.09;5195045;28;20075;-67
2023/05/11 02:32:51;;;;;;;1.58;1.15;;;13.30;99.90;;;13.44;100.00;100837.81;5204678;28;20045;-69
2023/05/11 02:35:28;;;;;;;1.50;1.00;;;13.30;99.90;;;13.44;100.00;100832.56;5204372;28;20048;-67
2023/05/11 02:38:03;;;;;;;1.63;1.13;;;13.30;99.90;;;13.46;100.00;100835.22;5204139;28;20079;-69
2023/05/11 02:40:46;;;;;;;1.90;1.30;;;13.30;99.90;;;13.47;100.00;100837.00;5204055;28;20056;-68
2023/05/11 02:43:25;;;;;;;2.17;1.00;;;13.30;99.90;;;13.48;100.00;100838.75;5204163;28;20049;-67
2023/05/11 02:46:06;;;;;;;1.75;1.05;;;13.30;99.90;;;13.48;100.00;100841.38;5204420;28;20046;-67
2023/05/11 02:48:45;;;;;;;1.88;0.98;;;13.30;99.90;;;13.49;100.00;100840.53;5204110;28;20446;-67
2023/05/11 02:51:22;;;;;;;1.30;1.08;;;13.40;99.90;;;13.48;100.00;100834.41;5204176;28;20056;-68
2023/05/11 02:53:59;;;;;;;0.80;0.80;;;13.40;99.90;;;13.49;100.00;100835.28;5213758;28;20206;-67
2023/05/11 02:56:35;;;;;;;0.60;0.60;;;13.40;99.90;;;13.48;100.00;100837.03;5203814;28;20060;-67
2023/05/11 02:59:07;;;;;;;0.60;0.60;;;13.40;99.90;;;13.51;100.00;100836.22;5205589;28;20087;-67
2023/05/11 03:01:40;;;;;;;1.15;0.55;;;13.40;99.90;;;13.50;100.00;100835.34;5204230;28;20073;-68
2023/05/11 03:04:14;;;;;;;0.77;0.75;;;13.40;99.90;;;13.49;100.00;100836.16;5203048;28;20079;-67
2023/05/11 03:06:47;;;;;;;0.75;0.73;;;13.40;99.90;;;13.49;100.00;100845.75;5187894;28;20046;-67
2023/05/11 03:09:19;;;;;;;1.23;0.88;;;13.30;99.90;;;13.48;100.00;100833.50;5203757;28;20119;-68
2023/05/11 03:11:54;;;;;;;0.65;0.45;;;13.30;99.90;;;13.50;100.00;100842.31;5203506;28;20533;-67
2023/05/11 03:14:27;;;;;;;0.50;0.50;;;13.30;99.90;;;13.49;100.00;100841.41;5203698;28;20202;-67
2023/05/11 03:17:01;;;;;;;0.60;0.60;;;13.40;99.90;;;13.49;100.00;100838.78;5203457;28;20048;-67
2023/05/11 03:19:35;;;;;;;0.52;0.52;;;13.30;99.90;;;13.50;100.00;100831.84;5186882;28;20097;-67
2023/05/11 03:22:09;;;;;;;0.82;0.43;;;13.40;99.90;;;13.49;100.00;100833.53;5211389;28;20049;-67
2023/05/11 03:24:42;;;;;;;0.55;0.55;;;13.30;99.90;;;13.48;100.00;100828.28;5204857;28;20045;-68
2023/05/11 03:27:15;;;;;;;0.60;0.52;;;13.40;99.90;;;13.49;100.00;100840.53;5202381;28;20127;-67
2023/05/11 03:29:50;;;;;;;0.70;0.50;;;13.40;99.90;;;13.48;100.00;100833.50;5221276;28;20034;-67
2023/05/11 03:32:23;;;;;;;0.55;0.55;;;13.30;99.90;;;13.46;100.00;100830.88;5211752;28;20072;-68
2023/05/11 03:34:56;;;;;;;0.55;0.52;;;13.30;99.90;;;13.45;100.00;100833.47;5187261;28;20044;-67
2023/05/11 03:37:30;;;;;;;0.68;0.52;;;13.30;99.90;;;13.44;100.00;100829.06;5204154;28;20056;-68
2023/05/11 03:40:04;;;;;;;0.70;0.70;;;13.30;99.90;;;13.43;100.00;100829.91;5211551;28;20085;-67
2023/05/11 03:42:45;;;;;;;1.00;0.52;;;13.30;99.90;;;13.43;100.00;100820.34;5222105;28;20037;-67
2023/05/11 03:45:20;;;;;;;1.15;0.80;;;13.30;99.90;;;13.42;100.00;100828.13;5199836;28;20061;-67
2023/05/11 03:47:55;;;;;;;0.90;0.90;;;13.30;99.90;;;13.41;100.00;100823.75;5203016;28;20047;-68
2023/05/11 03:50:29;;;;;;;0.52;0.52;;;13.30;99.90;;;13.38;100.00;100821.06;5203748;28;20037;-67
2023/05/11 03:53:01;;;;;;;1.08;0.65;;;13.30;99.90;;;13.37;100.00;100819.31;5199610;28;20083;-69
2023/05/11 03:55:34;;;;;;;0.73;0.73;;;13.30;99.90;;;13.36;100.00;100814.91;5205390;28;20048;-68
2023/05/11 03:58:08;;;;;;;0.85;0.60;;;13.20;99.90;;;13.37;100.00;100814.06;5211051;28;20053;-68
2023/05/11 04:00:41;;;;;;;1.33;1.10;;;13.20;99.90;;;13.38;100.00;100815.84;5211927;28;20049;-67
2023/05/11 04:03:14;;;;;;;0.85;0.75;;;13.20;99.90;;;13.39;100.00;100807.13;5202514;28;20073;-67
2023/05/11 04:05:48;;;;;;;0.90;0.75;;;13.30;99.90;;;13.40;100.00;100809.78;5202680;28;20076;-67
2023/05/11 04:08:20;;;;;;;1.58;0.80;;;13.30;99.90;;;13.40;100.00;100816.75;5202496;28;20060;-67
2023/05/11 04:10:52;;;;;;;1.38;0.88;;;13.30;99.90;;;13.40;100.00;100809.78;5202278;28;20214;-68
2023/05/11 04:13:25;;;;;;;1.10;0.82;;;13.30;99.90;;;13.41;100.00;100813.28;5203420;28;20044;-67
2023/05/11 04:15:58;;;;;;;2.08;0.85;;;13.30;99.90;;;13.42;100.00;100812.44;5194588;28;20073;-68
2023/05/11 04:18:30;;;;;;;1.45;1.02;;;13.30;99.90;;;13.42;100.00;100813.31;5204525;28;20045;-68
2023/05/11 04:21:05;;;;;;;1.52;1.00;;;13.30;99.90;;;13.45;100.00;100818.63;5193519;28;20125;-68
2023/05/11 04:23:37;;;;;;;;;;;13.30;99.90;;;13.45;100.00;100823.00;5212226;28;20112;-68
2023/05/11 04:26:09;;;;;;;1.60;1.10;;;13.30;99.90;;;13.45;100.00;100823.00;5210122;28;19924;-68
2023/05/11 04:28:41;;;;;;;2.40;1.30;;;13.30;99.90;;;13.47;100.00;100823.91;5205317;28;20049;-68
2023/05/11 04:31:14;;;;;;;2.83;1.17;;;13.30;99.90;;;13.49;100.00;100827.44;5203526;28;20469;-68
2023/05/11 04:33:47;;;;;;;2.15;1.33;;;13.40;99.90;;;13.47;100.00;100830.03;5201686;28;20049;-68
2023/05/11 04:36:21;;;;;;;3.17;1.42;;;13.40;99.90;;;13.49;100.00;100837.91;5202159;28;20053;-68
2023/05/11 04:38:53;;;;;;;2.45;1.23;;;13.40;99.90;;;13.49;100.00;100833.53;5203515;28;20051;-68
2023/05/11 04:41:26;;;;;;;2.13;1.23;;;13.40;99.90;;;13.50;100.00;100831.84;5202170;28;20052;-68
2023/05/11 04:44:02;;;;;;;3.50;1.52;;;13.40;99.90;;;13.51;100.00;100838.84;5202919;28;20383;-68
2023/05/11 04:46:35;;;;;;;1.95;1.27;;;13.40;99.90;;;13.54;100.00;100838.91;5211318;28;20053;-62
2023/05/11 04:49:08;;;;;;;2.60;1.33;;;13.40;99.90;;;13.55;100.00;100832.81;5206500;28;20057;-63
2023/05/11 04:51:45;;;;;;;3.17;1.65;;;13.40;99.90;;;13.57;100.00;100844.22;5210690;28;20049;-63
2023/05/11 04:54:17;;;;;;;3.60;1.60;;;13.40;99.90;;;13.60;100.00;100843.41;5209001;28;20076;-64
2023/05/11 04:56:49;;;;;;;2.70;1.77;;;13.40;99.90;;;13.60;100.00;100849.53;5209094;28;20056;-64
2023/05/11 04:59:22;;;;;;;3.20;1.90;;;13.40;99.90;;;13.62;100.00;100850.44;5207901;28;20048;-64
2023/05/11 05:01:54;;;;;;;2.78;1.55;;;13.50;99.90;;;13.62;100.00;100847.81;5218009;28;20045;-63
2023/05/11 05:04:26;;;;;;;3.42;1.63;;;13.50;99.90;;;13.64;100.00;100856.63;5252528;22;20060;-67
2023/05/11 05:07:01;;;;;;;2.38;1.38;;;13.50;99.90;;;13.66;100.00;100860.16;5189524;28;20061;-68
2023/05/11 05:09:33;;;;;;;3.25;1.35;;;13.50;99.90;;;13.68;100.00;100858.44;5180844;28;20054;-67
2023/05/11 05:12:09;;;;;;;3.55;1.58;;;13.50;99.90;;;13.71;100.00;100858.53;5190548;28;20074;-67
2023/05/11 05:14:41;;;;;;;;;;;13.60;99.90;;;13.73;100.00;100864.66;5190262;28;20046;-68
2023/05/11 05:17:13;;;;;;;2.00;1.15;;;13.60;99.90;;;13.75;100.00;100857.72;5188121;28;19925;-67
2023/05/11 05:19:46;;;;;;;1.73;1.20;;;13.60;99.90;;;13.79;100.00;100861.31;5184023;28;20029;-68
2023/05/11 05:22:20;;;;;;;2.78;1.23;;;13.60;99.90;;;13.82;100.00;100861.38;5183560;28;20054;-67
2023/05/11 05:24:52;;;;;;;1.65;1.02;;;13.60;99.90;;;13.84;100.00;100871.06;5179166;28;20382;-67
2023/05/11 05:27:25;;;;;;;2.30;1.15;;;13.70;99.90;;;13.87;100.00;100871.97;5197769;28;20499;-66
2023/05/11 05:29:57;;;;;;;2.13;1.02;;;13.70;99.90;;;13.90;100.00;100869.44;5182963;28;20053;-66
2023/05/11 05:32:31;;;;;;;2.03;1.10;;;13.70;99.90;;;13.93;100.00;100874.72;5188699;28;20406;-66
2023/05/11 05:35:03;;;;;;;3.00;1.15;;;13.80;99.90;;;13.95;100.00;100870.38;5186715;28;20568;-66
2023/05/11 05:37:37;;;;;;;2.38;1.25;;;13.80;99.90;;;13.95;100.00;100873.00;5177641;28;20097;-66
2023/05/11 05:40:11;;;;;;;3.15;1.45;;;13.80;99.90;;;13.97;100.00;100871.34;5173315;28;20069;-66
2023/05/11 05:42:48;;;;;;;2.08;1.27;;;13.80;99.90;;;13.98;100.00;100880.97;5186221;28;20053;-66
2023/05/11 05:45:25;;;;;;;2.42;1.52;;;13.80;99.90;;;14.01;100.00;100881.00;5176300;28;20065;-65
2023/05/11 05:47:59;;;;;;;3.08;1.85;;;13.80;99.90;;;14.01;100.00;100883.63;5188254;28;20053;-66
2023/05/11 05:50:32;;;;;;;3.15;1.50;;;13.80;99.90;;;14.03;100.00;100881.94;5184038;28;20034;-66
2023/05/11 05:53:06;;;;;;;3.40;2.00;;;13.80;99.90;;;14.06;100.00;100888.13;5187884;28;20045;-67
2023/05/11 05:55:40;;;;;;;3.58;1.55;;;13.90;99.90;;;14.09;100.00;100889.94;5177646;28;20049;-67
2023/05/11 05:58:12;;;;;;;2.85;1.63;;;13.90;99.90;;;14.11;100.00;100888.25;5187038;28;20097;-66
2023/05/11 06:00:44;;;;;;;3.47;1.77;;;13.90;99.90;;;14.15;100.00;100897.97;5194144;28;20046;-66
2023/05/11 06:03:17;;;;;;;4.88;2.08;;;14.00;99.90;;;14.19;100.00;100896.25;5207433;28;20132;-65
2023/05/11 06:05:49;;;;;;;3.60;2.00;;;14.00;99.90;;;14.22;100.00;100886.75;5209163;28;20045;-57
2023/05/11 06:08:23;;;;;;;4.75;2.08;;;14.00;99.90;;;14.27;100.00;100887.69;5206671;28;20053;-57
2023/05/11 06:10:55;;;;;;;4.50;2.15;;;14.10;99.90;;;14.33;100.00;100894.81;5202765;28;20045;-57
2023/05/11 06:13:27;;;;;;;5.43;2.60;;;14.10;99.90;;;14.38;100.00;100896.69;5225499;22;20533;-76
2023/05/11 06:16:00;;;;;;;6.45;2.65;;;14.20;99.90;;;14.47;100.00;100905.63;5205972;28;20049;-79
2023/05/11 06:18:37;;;;;;;6.40;2.95;;;14.20;99.90;;;14.51;100.00;100904.84;5182167;28;20073;-78
2023/05/11 06:21:12;;;;;;;8.93;3.50;;;14.30;99.90;;;14.57;100.00;100902.34;5199256;28;20427;-78
2023/05/11 06:23:45;;;;;;;9.27;3.63;;;14.30;99.90;;;14.64;100.00;100888.50;5197296;28;20046;-78
2023/05/11 06:26:18;;;;;;;7.13;3.38;;;14.30;99.90;;;14.72;100.00;100897.41;5189598;28;20045;-76
2023/05/11 06:28:51;;;;;;;9.23;4.13;;;14.40;99.90;;;14.83;100.00;100895.00;5203771;28;20054;-78
2023/05/11 06:31:23;;;;;;;10.82;4.15;;;14.50;99.90;;;14.94;100.00;100898.72;5191864;28;20053;-80
2023/05/11 06:33:56;;;;;;;11.23;4.55;;;14.60;99.90;;;15.10;100.00;100899.88;5183540;28;20044;-78
2023/05/11 06:36:32;;;;;;;9.63;4.07;;;14.70;99.90;;;15.24;100.00;100892.22;5174197;28;20045;-83
2023/05/11 06:39:06;;;;;;;11.27;4.32;;;14.90;99.90;;;15.32;100.00;100891.53;5178319;28;20056;-78
2023/05/11 06:41:38;;;;;;;14.57;6.00;;;15.00;99.90;;;15.31;100.00;100896.72;5185723;28;20131;-75
2023/05/11 06:44:11;;;;;;;12.35;4.28;;;15.00;99.90;;;15.44;100.00;100893.44;5204956;28;20053;-74
2023/05/11 06:46:43;;;;;;;11.88;5.10;;;15.20;99.90;;;15.59;100.00;100900.72;5196623;28;20037;-79
2023/05/11 06:49:15;;;;;;;8.18;4.10;;;15.30;99.90;;;15.64;100.00;100904.31;5178878;28;20058;-79
2023/05/11 06:51:50;;;;;;;;;;;15.40;99.90;;;15.64;100.00;100902.56;5194513;28;20046;-77
2023/05/11 06:54:23;;;;;;;9.65;3.80;;;15.40;99.90;;;15.62;100.00;100900.78;5193356;28;19922;-78
2023/05/11 06:56:55;;;;;;;12.23;5.72;;;15.40;99.90;;;15.58;100.00;100893.66;5165967;28;20049;-86
2023/05/11 06:59:28;;;;;;;10.30;4.78;;;15.40;99.90;;;15.54;100.00;100903.25;5196634;28;20530;-82
2023/05/11 07:02:00;;;;;;;11.77;5.22;;;15.30;99.90;;;15.59;100.00;100903.34;5201730;28;20034;-78
2023/05/11 07:04:32;;;;;;;13.63;6.03;;;15.40;99.90;;;15.62;100.00;100900.78;5174816;28;20041;-80
2023/05/11 07:07:04;;;;;;;10.73;4.78;;;15.40;99.90;;;15.61;100.00;100907.75;5180825;28;20046;-80
2023/05/11 07:09:37;;;;;;;9.20;4.93;;;15.40;99.90;;;15.64;100.00;100905.19;5174546;28;20054;-80
2023/05/11 07:12:09;;;;;;;11.32;4.75;;;15.40;99.90;;;15.65;100.00;100900.84;5172722;28;20049;-77
2023/05/11 07:14:42;;;;;;;14.40;6.47;;;15.40;99.90;;;15.66;100.00;100902.63;5191835;28;20050;-81
2023/05/11 07:17:14;;;;;;;19.58;8.38;;;15.40;99.90;;;15.55;100.00;100904.16;5189176;28;20475;-81
2023/05/11 07:19:46;;;;;;;13.18;6.07;;;15.30;99.90;;;15.43;100.00;100908.31;5179845;28;20096;-81
2023/05/11 07:22:18;;;;;;;11.95;5.40;;;15.30;99.90;;;15.42;100.00;100906.56;5188387;28;20056;-80
2023/05/11 07:24:51;;;;;;;12.75;5.40;;;15.20;99.90;;;15.43;100.00;100905.69;5188567;28;20046;-79
2023/05/11 07:27:23;;;;;;;12.73;5.90;;;15.20;99.90;;;15.46;100.00;100905.78;5186330;28;20061;-80
2023/05/11 07:29:55;;;;;;;11.77;4.97;;;15.20;99.90;;;15.51;100.00;100907.56;5196492;28;20061;-81
2023/05/11 07:32:27;;;;;;;13.48;6.05;;;15.30;99.90;;;15.53;100.00;100906.75;5192740;28;20057;-80
2023/05/11 07:34:59;;;;;;;14.70;6.90;;;15.20;99.90;;;15.54;100.00;100912.88;5176368;28;20043;-80
2023/05/11 07:37:31;;;;;;;13.57;5.60;;;15.30;99.90;;;15.60;100.00;100903.38;5189369;28;20057;-80
2023/05/11 07:40:07;;;;;;;11.05;5.20;;;15.30;99.90;;;15.69;100.00;100913.16;5192853;28;20054;-80
2023/05/11 07:42:39;;;;;;;11.38;5.40;;;15.40;99.90;;;15.81;100.00;100908.09;5188206;28;20038;-80
2023/05/11 07:45:11;;;;;;;12.45;5.55;;;15.40;99.90;;;16.01;100.00;100911.91;5171379;28;20046;-81
2023/05/11 07:47:43;;;;;;;13.48;5.88;;;15.60;99.90;;;16.33;100.00;100908.84;5196665;28;20053;-84
2023/05/11 07:50:16;;;;;;;13.25;6.43;;;15.80;99.90;;;16.68;100.00;100908.38;5195340;28;20050;-82
2023/05/11 07:52:48;;;;;;;14.95;6.95;;;16.10;99.90;;;16.92;100.00;100916.59;5195586;28;20050;-81
2023/05/11 07:55:23;;;;;;;14.80;7.07;;;16.30;99.90;;;17.16;100.00;100915.09;5190104;28;20508;-84
2023/05/11 07:57:56;;;;;;;15.18;6.93;;;16.50;99.90;;;17.33;100.00;100911.72;5180882;28;20047;-85
2023/05/11 08:00:28;;;;;;;12.18;6.50;;;16.70;99.90;;;17.45;100.00;100918.00;5183263;28;20057;-83
2023/05/11 08:03:00;;;;;;;11.85;5.78;;;16.80;99.90;;;17.53;100.00;100911.91;5189354;28;20097;-81
2023/05/11 08:05:36;;;;;;;12.50;6.05;;;16.90;99.90;;;17.59;100.00;100922.50;5164007;28;20050;-85
2023/05/11 08:08:08;;;;;;;11.25;5.38;;;17.00;99.90;;;17.64;100.00;100907.59;5189081;28;20046;-85
2023/05/11 08:10:41;;;;;;;11.15;5.55;;;17.10;99.90;;;17.63;100.00;100919.03;5185552;28;20072;-80
2023/05/11 08:13:13;;;;;;;12.57;5.47;;;17.00;99.90;;;17.53;100.00;100914.53;5167909;28;20050;-85
2023/05/11 08:15:46;;;;;;;10.48;5.43;;;17.00;99.90;;;17.39;100.00;100913.53;5188028;28;20114;-88
2023/05/11 08:18:18;;;;;;;11.30;5.13;;;16.90;99.90;;;17.39;100.00;100913.53;5178654;28;20046;-85
2023/05/11 08:20:50;;;;;;;13.05;5.57;;;16.90;99.90;;;17.34;100.00;100920.50;5185134;28;20140;-84
2023/05/11 08:23:22;;;;;;;10.63;4.57;;;16.80;99.90;;;17.34;100.00;100920.50;5193537;28;20045;-84
2023/05/11 08:25:56;;;;;;;10.32;4.88;;;16.80;99.90;;;17.35;100.00;100923.19;5190179;28;20042;-85
2023/05/11 08:28:28;;;;;;;9.27;4.70;;;16.90;99.90;;;17.33;100.00;100917.00;5190224;28;20419;-90
2023/05/11 08:31:01;;;;;;;9.13;4.80;;;16.80;99.90;;;17.28;100.00;100918.72;5180581;28;20423;-82
2023/05/11 08:33:33;;;;;;;10.48;5.45;;;16.80;99.90;;;17.30;100.00;100924.00;5200006;28;20053;-82
2023/05/11 08:36:07;;;;;;;10.60;5.00;;;16.80;99.90;;;17.38;100.00;100918.81;5187139;28;20084;-85
2023/05/11 08:38:39;;;;;;;11.25;5.22;;;16.90;99.90;;;17.42;100.00;100918.84;5182960;28;20049;-86
2023/05/11 08:41:13;;;;;;;10.00;5.10;;;16.90;99.90;;;17.47;100.00;100917.13;5196353;28;20056;-85
2023/05/11 08:43:46;;;;;;;11.52;5.72;;;16.90;99.90;;;17.44;100.00;100911.84;5191359;28;20046;-85
2023/05/11 08:46:22;;;;;;;10.95;5.20;;;16.90;99.90;;;17.39;100.00;100912.66;5188800;28;20060;-85
2023/05/11 08:48:55;;;;;;;14.05;6.55;;;16.90;99.90;;;17.35;100.00;100914.41;5177201;28;20149;-86
2023/05/11 08:51:27;;;;;;;11.60;5.88;;;16.90;99.90;;;17.38;100.00;100914.41;5181593;28;20046;-88
2023/05/11 08:53:59;;;;;;;10.88;6.10;;;16.90;99.90;;;17.59;100.00;100913.72;5195198;28;20049;-86
2023/05/11 08:56:36;;;;;;;11.15;5.15;;;17.00;99.90;;;17.92;100.00;100915.75;5174466;28;20046;-82
2023/05/11 08:59:08;;;;;;;10.25;5.50;;;17.20;99.90;;;18.14;100.00;100917.66;5197641;28;20034;-92
2023/05/11 09:01:42;;;;;;;10.48;4.95;;;17.40;99.90;;;18.24;100.00;100928.25;5180858;28;20516;-86
2023/05/11 09:04:15;;;;;;;8.02;4.38;;;17.50;99.90;;;18.32;100.00;100910.69;5192261;28;20057;-83
2023/05/11 09:06:49;;;;;;;9.18;4.80;;;17.60;99.90;;;18.42;100.00;100917.78;5185148;28;20069;-86
2023/05/11 09:09:21;;;;;;;9.48;4.53;;;17.70;99.90;;;18.44;100.00;100919.56;5181048;28;20071;-84
2023/05/11 09:11:55;;;;;;;9.90;4.95;;;17.70;99.90;;;18.60;100.00;100925.81;5185404;28;20052;-82
2023/05/11 09:14:28;;;;;;;8.50;4.85;;;17.90;99.90;;;18.81;100.00;100910.94;5201158;28;20049;-86
2023/05/11 09:17:01;;;;;;;8.50;4.53;;;18.00;99.90;;;18.92;100.00;100910.09;5188330;28;20531;-85
2023/05/11 09:19:33;;;;;;;9.43;5.13;;;18.10;99.90;;;19.05;100.00;100910.13;5196290;28;20050;-86
2023/05/11 09:22:06;;;;;;;10.60;5.30;;;18.20;99.90;;;19.27;100.00;100905.75;5185951;28;20310;-86
2023/05/11 09:24:42;;;;;;;9.40;4.85;;;18.40;99.90;;;19.37;100.00;100916.34;5187404;28;20496;-87
2023/05/11 09:27:16;;;;;;;9.52;5.00;;;18.50;99.90;;;19.48;100.00;100916.31;5171484;28;20543;-88
2023/05/11 09:29:48;;;;;;;8.90;4.53;;;18.70;99.90;;;19.48;100.00;100914.56;5191320;28;20042;-87
2023/05/11 09:32:20;;;;;;;8.13;4.00;;;18.70;99.90;;;19.47;99.09;100915.44;5181779;28;20054;-86
2023/05/11 09:34:52;;;;;;;8.38;4.63;;;18.70;99.90;;;19.47;98.78;100909.28;5198105;28;20054;-87
2023/05/11 09:37:24;;;;;;;7.30;4.10;;;18.80;99.90;;;19.49;98.21;100910.16;5183374;28;20504;-88
2023/05/11 09:39:57;;;;;;;10.40;4.78;;;18.80;99.90;;;19.49;98.16;100908.38;5189870;28;20053;-85
2023/05/11 09:42:30;;;;;;;10.32;4.85;;;18.80;99.90;;;19.46;98.72;100907.53;5190126;28;20522;-82
2023/05/11 09:45:02;;;;;;;8.95;4.47;;;18.80;99.90;;;19.40;98.29;100908.41;5194689;28;20050;-87
2023/05/11 09:47:40;;;;;;;8.77;5.00;;;18.80;99.90;;;19.29;98.31;100909.25;5190742;28;20054;-86
2023/05/11 09:50:18;;;;;;;8.23;5.18;;;18.70;99.90;;;19.19;98.50;100909.25;5184330;28;20045;-87
2023/05/11 09:52:51;;;;;;;10.10;4.95;;;18.60;99.90;;;19.17;99.04;100900.47;5172900;28;20144;-86
2023/05/11 09:55:23;;;;;;;9.57;4.78;;;18.60;99.90;;;19.18;98.55;100898.69;5170586;28;20411;-85
2023/05/11 09:57:59;;;;;;;9.15;4.57;;;18.60;99.90;;;19.24;98.90;100904.00;5196899;28;20065;-87
2023/05/11 10:00:32;;;;;;;8.63;4.90;;;18.60;99.90;;;19.22;98.98;100903.97;5200982;28;20046;-86
2023/05/11 10:03:07;;;;;;;8.55;4.93;;;18.70;99.90;;;19.08;99.24;100900.44;5174908;28;20046;-86
2023/05/11 10:05:39;;;;;;;8.70;4.47;;;18.60;99.90;;;18.99;100.00;100908.34;5193474;28;20065;-87
2023/05/11 10:08:11;;;;;;;7.25;4.00;;;18.50;99.90;;;18.98;100.00;100909.22;5191041;28;20447;-88
2023/05/11 10:10:43;;;;;;;8.40;4.07;;;18.50;99.90;;;18.98;100.00;100903.94;5173091;28;20053;-86
2023/05/11 10:13:17;;;;;;;8.48;4.65;;;18.50;99.90;;;18.99;100.00;100900.44;5177533;28;20510;-85
2023/05/11 10:15:51;;;;;;;8.45;4.75;;;18.50;99.90;;;19.03;99.03;100890.72;5181418;28;20050;-87
2023/05/11 10:18:26;;;;;;;7.95;4.38;;;18.40;99.90;;;19.09;99.24;100902.19;5162999;28;20053;-84
2023/05/11 10:20:59;;;;;;;6.85;4.50;;;18.60;99.90;;;19.11;98.18;100895.16;5186515;28;20050;-84
2023/05/11 10:23:33;;;;;;;6.45;3.97;;;18.50;99.90;;;19.17;97.78;100888.97;5168896;28;20049;-86
2023/05/11 10:26:05;;;;;;;7.40;4.00;;;18.60;99.90;;;19.17;97.69;100884.63;5184570;28;20093;-86
2023/05/11 10:28:39;;;;;;;5.80;3.58;;;18.60;99.90;;;19.24;98.62;100885.50;5181537;28;20132;-87
2023/05/11 10:31:13;;;;;;;7.70;3.50;;;18.60;99.90;;;19.29;98.19;100890.75;5184923;28;20043;-85
2023/05/11 10:33:45;;;;;;;11.45;5.55;;;18.70;99.90;;;19.25;96.92;100888.13;5188143;28;20125;-87